Time;durP1;ratioP1;P1;durP2;ratioP2;P2;SDS_P1;SDS_P2;PMS_P1;PMS_P2;Temp;Humidity;BMP_temperature;BMP_pressure;BME280_temperature;BME280_humidity;BME280_pressure;Samples;Min_cycle;Max_cycle;Signal;HPM_P1;HPM_P2
2022/04/26 03:38:34;;;;;;;15.63;13.57;;;;;;;4.24;100.00;99189.59;5075711;28;20192;-77
2022/04/26 03:41:06;;;;;;;17.37;14.97;;;;;;;4.18;100.00;99193.81;5077223;28;20203;-76
2022/04/26 03:43:42;;;;;;;16.93;13.83;;;;;;;4.18;100.00;99190.34;5092036;28;20176;-75
2022/04/26 03:46:12;;;;;;;15.53;13.63;;;;;;;4.14;100.00;99189.09;5095165;22;20238;-76
2022/04/26 03:48:44;;;;;;;19.67;16.00;;;;;;;4.37;100.00;99182.59;5088732;28;20176;-73
2022/04/26 03:51:15;;;;;;;17.97;15.13;;;;;;;4.43;100.00;99184.44;5094169;22;20237;-75
2022/04/26 03:53:53;;;;;;;18.60;15.47;;;;;;;4.40;100.00;99190.16;5072927;28;20203;-74
2022/04/26 03:56:26;;;;;;;19.30;15.93;;;;;;;4.44;100.00;99194.06;5091456;22;20244;-74
2022/04/26 03:59:03;;;;;;;20.03;15.00;;;;;;;4.46;100.00;99191.22;5070007;28;20266;-76
2022/04/26 04:01:44;;;;;;;17.70;14.60;;;;;;;4.49;100.00;99197.97;5082089;28;20189;-76
2022/04/26 04:04:12;;;;;;;16.57;14.63;;;;;;;4.47;100.00;99194.69;5070550;28;20202;-74
2022/04/26 04:06:43;;;;;;;18.20;15.97;;;;;;;4.48;100.00;99199.00;5093981;22;20307;-74
2022/04/26 04:09:14;;;;;;;19.30;16.77;;;;;;;4.48;100.00;99205.09;5088336;28;20207;-75
2022/04/26 04:11:52;;;;;;;17.73;15.83;;;;;;;4.49;100.00;99206.75;5088071;28;20183;-76
2022/04/26 04:14:20;;;;;;;16.90;15.10;;;;;;;4.50;100.00;99212.88;5069923;28;20200;-75
2022/04/26 04:16:55;;;;;;;17.53;15.47;;;;;;;4.54;100.00;99214.13;5071057;28;20204;-76
2022/04/26 04:19:24;;;;;;;16.43;14.57;;;;;;;4.57;100.00;99216.44;5072737;28;20180;-75
2022/04/26 04:21:53;;;;;;;17.83;15.20;;;;;;;4.63;100.00;99221.78;5072335;28;20188;-76
2022/04/26 04:24:32;;;;;;;18.20;15.07;;;;;;;4.69;100.00;99226.31;5072324;28;20216;-75
2022/04/26 04:27:01;;;;;;;17.10;15.30;;;;;;;4.78;100.00;99227.00;5087723;28;20180;-75
2022/04/26 04:29:28;;;;;;;19.27;15.50;;;;;;;4.89;100.00;99234.44;5087203;28;20246;-75
2022/04/26 04:31:59;;;;;;;17.63;15.17;;;;;;;5.00;100.00;99239.22;5093633;22;20522;-75
2022/04/26 04:34:40;;;;;;;17.17;15.10;;;;;;;5.12;100.00;99234.19;5071678;28;20181;-75
2022/04/26 04:37:08;;;;;;;18.23;15.27;;;;;;;5.29;100.00;99235.53;5087499;28;20203;-77
2022/04/26 04:39:42;;;;;;;16.10;14.40;;;;;;;5.48;100.00;99234.81;5088354;28;20292;-75
2022/04/26 04:42:14;;;;;;;17.83;15.90;;;;;;;5.66;100.00;99242.28;5086443;28;20268;-76
2022/04/26 04:44:41;;;;;;;20.00;15.87;;;;;;;5.87;100.00;99247.53;5085491;22;20324;-76
2022/04/26 04:47:11;;;;;;;17.60;15.63;;;;;;;6.05;100.00;99239.81;5059188;28;20268;-78
2022/04/26 04:49:38;;;;;;;16.17;14.47;;;;;;;6.24;100.00;99243.56;5077123;28;20185;-77
2022/04/26 04:52:05;;;;;;;16.80;15.10;;;;;;;6.47;100.00;99246.66;5059068;28;20199;-80
2022/04/26 04:54:32;;;;;;;17.47;15.07;;;;;;;6.65;100.00;99246.06;5041248;28;20234;-76
2022/04/26 04:56:58;;;;;;;17.70;14.80;;;;;;;6.86;100.00;99240.53;5075817;28;20295;-77
2022/04/26 04:59:28;;;;;;;16.87;15.17;;;;;;;7.15;100.00;99249.13;5058212;28;20217;-78
2022/04/26 05:01:57;;;;;;;16.77;14.93;;;;;;;7.41;100.00;99251.78;5042362;28;20238;-78
2022/04/26 05:04:23;;;;;;;15.63;13.93;;;;;;;7.63;100.00;99245.16;5076504;28;20189;-77
2022/04/26 05:06:51;;;;;;;16.37;14.67;;;;;;;8.12;100.00;99251.75;5058405;28;20234;-77
2022/04/26 05:09:17;;;;;;;15.53;13.93;;;;;;;8.52;100.00;99252.34;5075878;28;20517;-78
2022/04/26 05:11:44;;;;;;;14.87;13.37;;;;;;;8.92;100.00;99252.88;5075600;28;20656;-76
2022/04/26 05:14:12;;;;;;;15.43;13.80;;;;;;;9.24;100.00;99252.59;5076096;28;20224;-77
2022/04/26 05:16:39;;;;;;;14.30;12.80;;;;;;;9.58;100.00;99256.56;5074463;28;20238;-77
2022/04/26 05:19:05;;;;;;;15.40;12.20;;;;;;;9.81;100.00;99263.09;5057907;28;20182;-81
2022/04/26 05:21:33;;;;;;;14.57;12.93;;;;;;;9.83;100.00;99258.38;5075891;28;20200;-77
2022/04/26 05:26:45;;;;;;;14.33;12.57;;;;;;;9.93;100.00;99264.00;5075188;28;20200;-77
2022/04/26 05:29:12;;;;;;;12.93;11.63;;;;;;;10.09;100.00;99266.88;5075386;28;20220;-77
2022/04/26 05:31:38;;;;;;;13.30;12.00;;;;;;;9.96;100.00;99263.56;5057890;28;20189;-77
2022/04/26 05:34:06;;;;;;;13.40;12.10;;;;;;;10.17;100.00;99263.13;5057968;28;20181;-78
2022/04/26 05:36:35;;;;;;;13.53;12.13;;;;;;;10.37;100.00;99257.50;5075416;28;20204;-74
2022/04/26 05:39:01;;;;;;;13.57;12.27;;;;;;;10.50;100.00;99257.28;5057777;28;20615;-77
2022/04/26 05:41:28;;;;;;;14.00;12.70;;;;;;;10.77;100.00;99263.94;5040843;28;20308;-77
2022/04/26 05:43:55;;;;;;;13.30;11.90;;;;;;;10.91;100.00;99267.22;5075346;28;20216;-77
2022/04/26 05:46:22;;;;;;;13.53;12.13;;;;;;;11.14;100.00;99266.44;5075076;28;20328;-77
2022/04/26 05:48:49;;;;;;;12.97;11.67;;;;;;;11.26;100.00;99269.91;5075608;28;20185;-78
2022/04/26 05:51:16;;;;;;;12.40;11.20;;;;;;;11.28;100.00;99279.38;5057367;28;20219;-77
2022/04/26 05:53:42;;;;;;;13.20;11.90;;;;;;;11.40;100.00;99277.50;5074915;28;20223;-78
2022/04/26 05:56:12;;;;;;;12.87;11.57;;;;;;;11.47;100.00;99280.09;5057961;28;20227;-77
2022/04/26 05:58:39;;;;;;;12.53;11.33;;;;;;;11.47;100.00;99286.28;5074742;28;20267;-78
2022/04/26 06:01:06;;;;;;;13.33;11.60;;;;;;;11.49;100.00;99286.84;5056901;28;20193;-78
2022/04/26 06:03:34;;;;;;;12.97;11.67;;;;;;;11.40;100.00;99284.72;5056708;28;20189;-77
2022/04/26 06:06:01;;;;;;;12.40;11.20;;;;;;;11.65;100.00;99285.31;5073764;28;20181;-76
2022/04/26 06:08:27;;;;;;;12.53;11.33;;;;;;;11.88;100.00;99295.25;5056484;28;20223;-75
2022/04/26 06:10:54;;;;;;;12.30;11.13;;;;;;;12.09;100.00;99283.03;5074948;28;20211;-77
2022/04/26 06:13:21;;;;;;;12.63;11.33;;;;;;;12.39;100.00;99290.91;5056612;28;20525;-77
2022/04/26 06:15:48;;;;;;;11.57;10.47;;;;;;;12.47;100.00;99290.50;5056608;28;20248;-78
2022/04/26 06:18:14;;;;;;;12.03;10.83;;;;;;;12.94;100.00;99283.84;5074733;28;20199;-77
2022/04/26 06:20:41;;;;;;;12.53;11.33;;;;;;;13.04;100.00;99288.59;5040323;28;20329;-75
2022/04/26 06:23:09;;;;;;;12.20;11.10;;;;;;;13.09;100.00;99291.38;5057185;28;20223;-75
2022/04/26 06:25:38;;;;;;;13.27;11.97;;;;;;;12.98;100.00;99282.31;5074627;28;20447;-77
2022/04/26 06:28:09;;;;;;;12.57;11.37;;;;;;;12.31;100.00;99279.50;5075072;28;20275;-77
2022/04/26 06:30:39;;;;;;;13.17;11.87;;;;;;;12.12;100.00;99283.41;5056426;28;20212;-77
2022/04/26 06:33:06;;;;;;;13.70;12.37;;;;;;;12.04;100.00;99291.81;5056504;28;20196;-77
2022/04/26 06:35:40;;;;;;;13.03;11.73;;;;;;;11.91;100.00;99281.34;5041837;28;20279;-77
2022/04/26 06:38:07;;;;;;;13.03;11.83;;;;;;;12.13;100.00;99276.16;5057783;28;20235;-78
2022/04/26 06:40:34;;;;;;;13.17;11.87;;;;;;;12.56;100.00;99283.69;5075064;28;20187;-77
2022/04/26 06:43:01;;;;;;;14.33;12.80;;;;;;;12.55;100.00;99287.47;5074626;28;20316;-78
2022/04/26 06:45:28;;;;;;;12.60;11.30;;;;;;;12.70;100.00;99276.97;5058277;28;20262;-77
2022/04/26 06:47:55;;;;;;;13.47;12.07;;;;;;;12.52;100.00;99287.94;5074935;28;20215;-80
2022/04/26 06:50:22;;;;;;;12.77;11.43;;;;;;;12.41;100.00;99291.50;5074174;28;20235;-78
2022/04/26 06:52:48;;;;;;;14.03;12.53;;;;;;;12.02;100.00;99288.56;5039376;28;20610;-78
2022/04/26 06:55:15;;;;;;;14.50;13.10;;;;;;;12.29;100.00;99294.22;5056456;28;20287;-77
2022/04/26 06:57:42;;;;;;;12.77;11.57;;;;;;;12.11;100.00;99286.31;5040173;28;20260;-76
2022/04/26 07:00:09;;;;;;;12.87;11.57;;;;;;;12.35;100.00;99291.38;5074848;28;20599;-74
2022/04/26 07:02:36;;;;;;;13.07;11.87;;;;;;;12.57;100.00;99298.78;5073518;28;20264;-75
2022/04/26 07:05:03;;;;;;;12.60;11.40;;;;;;;12.55;100.00;99306.28;5074529;28;20230;-74
2022/04/26 07:07:30;;;;;;;13.57;12.20;;;;;;;12.73;100.00;99301.53;5073947;28;20207;-75
2022/04/26 07:09:57;;;;;;;12.53;11.37;;;;;;;13.51;100.00;99300.69;5073741;28;20244;-77
2022/04/26 07:12:24;;;;;;;11.23;10.17;;;;;;;14.02;100.00;99298.69;5073234;28;20212;-76
2022/04/26 07:14:51;;;;;;;11.67;10.50;;;;;;;14.53;100.00;99295.56;5073477;28;20276;-77
2022/04/26 07:17:18;;;;;;;12.07;10.97;;;;;;;15.06;94.89;99296.63;5055095;28;20209;-75
2022/04/26 07:19:45;;;;;;;12.57;11.33;;;;;;;15.49;94.86;99295.59;5072549;28;20656;-75
2022/04/26 07:22:26;;;;;;;12.73;11.47;;;;;;;15.55;89.26;99297.31;5072424;28;20184;-75
2022/04/26 07:24:53;;;;;;;13.63;12.33;;;;;;;15.71;88.12;99285.53;5073180;28;20181;-77
2022/04/26 07:27:22;;;;;;;14.07;12.73;;;;;;;15.53;91.44;99296.78;5072435;28;20170;-78
2022/04/26 07:29:51;;;;;;;14.93;13.40;;;;;;;15.37;92.68;99301.19;5055268;28;20194;-78
2022/04/26 07:32:20;;;;;;;13.73;12.27;;;;;;;14.53;98.20;99300.16;5040018;28;20656;-78
2022/04/26 07:34:46;;;;;;;13.90;12.60;;;;;;;14.38;100.00;99299.97;5055119;28;20212;-76
2022/04/26 07:37:13;;;;;;;14.47;13.07;;;;;;;13.95;100.00;99301.56;5072714;28;20581;-77
2022/04/26 07:39:41;;;;;;;13.03;11.83;;;;;;;13.83;100.00;99305.44;5077230;28;20365;-76
2022/04/26 07:42:08;;;;;;;13.13;11.77;;;;;;;13.76;100.00;99304.81;5077304;28;20196;-75
2022/04/26 07:44:35;;;;;;;12.90;11.70;;;;;;;13.83;100.00;99300.88;5076752;28;20220;-75
2022/04/26 07:47:05;;;;;;;12.63;11.40;;;;;;;13.81;100.00;99302.97;5076405;28;20183;-74
2022/04/26 07:49:31;;;;;;;12.53;11.43;;;;;;;13.77;100.00;99307.22;5076580;28;20217;-76
2022/04/26 07:51:59;;;;;;;12.80;11.50;;;;;;;13.51;100.00;99302.56;5042853;28;20185;-77
2022/04/26 07:54:27;;;;;;;12.63;11.43;;;;;;;13.35;100.00;99312.25;5059181;28;20216;-75
2022/04/26 07:56:54;;;;;;;12.80;11.57;;;;;;;12.94;100.00;99307.22;5059005;28;20530;-76
2022/04/26 07:59:22;;;;;;;13.80;12.53;;;;;;;12.91;100.00;99318.47;5077480;28;20247;-76
2022/04/26 08:01:49;;;;;;;13.50;12.20;;;;;;;12.70;100.00;99320.78;5075968;28;20190;-76
2022/04/26 08:04:17;;;;;;;13.67;12.37;;;;;;;12.84;100.00;99321.31;5064228;28;20185;-73
2022/04/26 08:06:45;;;;;;;13.90;12.57;;;;;;;12.83;100.00;99316.19;5088724;28;20196;-74
2022/04/26 08:09:13;;;;;;;13.93;12.30;;;;;;;12.82;100.00;99315.38;5088664;28;20232;-73
2022/04/26 08:11:49;;;;;;;13.90;12.60;;;;;;;12.82;100.00;99326.13;5069700;28;20199;-74
2022/04/26 08:14:22;;;;;;;13.40;12.10;;;;;;;12.80;100.00;99325.53;5092049;22;20229;-74
2022/04/26 08:16:56;;;;;;;13.70;12.33;;;;;;;12.80;100.00;99322.84;5069732;28;20580;-73
2022/04/26 08:19:23;;;;;;;14.67;13.13;;;;;;;12.83;100.00;99332.31;5086373;28;20204;-75
2022/04/26 08:21:51;;;;;;;13.03;11.83;;;;;;;12.87;100.00;99334.28;5085222;28;20181;-73
2022/04/26 08:27:23;;;;;;;13.67;12.37;;;;;;;12.87;100.00;99341.53;5087130;22;20700;-73
2022/04/26 08:30:00;;;;;;;14.13;12.73;;;;;;;12.87;100.00;99346.91;5082100;28;20209;-73
2022/04/26 08:32:49;;;;;;;13.33;12.03;;;;;;;12.88;100.00;99345.88;5081768;28;20255;-73
2022/04/26 08:35:23;;;;;;;13.93;12.63;;;;;;;12.82;100.00;99346.81;5064926;28;20174;-73
2022/04/26 08:38:12;;;;;;;14.13;12.73;;;;;;;12.68;100.00;99341.75;5082215;28;20219;-73
2022/04/26 08:40:46;;;;;;;12.90;11.60;;;;;;;12.67;100.00;99339.28;5081284;28;20216;-73
2022/04/26 08:43:16;;;;;;;12.57;11.27;;;;;;;12.52;100.00;99342.50;5082302;28;20173;-73
2022/04/26 08:45:46;;;;;;;12.73;11.53;;;;;;;12.40;100.00;99348.97;5081404;28;20194;-73
2022/04/26 08:51:09;;;;;;;12.23;10.93;;;;;;;12.35;100.00;99339.75;5082032;28;20254;-74
2022/04/26 08:53:38;;;;;;;12.80;11.50;;;;;;;12.21;100.00;99345.63;5090099;22;20177;-76
2022/04/26 08:56:08;;;;;;;13.43;12.03;;;;;;;12.20;100.00;99343.97;5041471;28;20253;-74
2022/04/26 08:58:39;;;;;;;13.10;11.63;;;;;;;12.25;100.00;99347.59;5009038;28;20264;-74
2022/04/26 09:01:23;;;;;;;13.07;11.77;;;;;;;12.31;100.00;99349.34;5081283;22;20240;-74
2022/04/26 09:03:59;;;;;;;13.00;11.70;;;;;;;12.33;100.00;99344.53;5048214;28;20272;-74
2022/04/26 09:06:40;;;;;;;12.83;11.60;;;;;;;12.33;100.00;99349.09;5053128;28;20178;-74
2022/04/26 09:09:18;;;;;;;13.77;12.37;;;;;;;12.36;100.00;99338.66;5084427;28;20182;-74
2022/04/26 09:11:49;;;;;;;12.50;11.20;;;;;;;12.41;100.00;99346.00;5083984;28;20514;-74
2022/04/26 09:14:35;;;;;;;12.83;11.63;;;;;;;12.43;100.00;99349.28;5085597;28;20185;-74
2022/04/26 09:17:10;;;;;;;12.63;11.37;;;;;;;12.37;100.00;99339.50;5085384;28;20177;-74
2022/04/26 09:20:09;;;;;;;13.53;12.10;;;;;;;12.43;100.00;99340.41;5085020;28;20181;-73
2022/04/26 09:22:42;;;;;;;13.60;12.20;;;;;;;12.18;100.00;99341.53;5092243;22;20251;-74
2022/04/26 09:25:11;;;;;;;13.17;11.77;;;;;;;12.12;100.00;99347.84;5027896;28;20205;-79
2022/04/26 09:27:41;;;;;;;13.30;12.00;;;;;;;12.38;100.00;99343.00;5016754;28;20609;-76
2022/04/26 09:30:13;;;;;;;13.17;11.83;;;;;;;12.42;100.00;99338.78;5016270;28;20214;-75
2022/04/26 09:32:50;;;;;;;13.40;12.00;;;;;;;12.64;100.00;99350.53;5033112;28;20180;-75
2022/04/26 09:35:20;;;;;;;12.40;11.30;;;;;;;12.77;100.00;99345.66;5033171;28;20442;-76
2022/04/26 09:37:48;;;;;;;13.07;11.87;;;;;;;12.78;100.00;99341.91;5016029;28;20222;-75
2022/04/26 09:40:27;;;;;;;13.07;11.80;;;;;;;12.76;100.00;99351.28;5017155;28;20206;-75
2022/04/26 09:42:53;;;;;;;13.57;12.17;;;;;;;12.87;100.00;99349.59;5033520;28;20198;-75
2022/04/26 09:45:20;;;;;;;13.17;11.87;;;;;;;12.68;100.00;99354.34;4999930;28;20194;-75
2022/04/26 09:47:49;;;;;;;14.00;12.63;;;;;;;12.77;100.00;99348.38;5015415;28;20669;-74
2022/04/26 09:50:17;;;;;;;13.30;12.00;;;;;;;12.88;100.00;99353.94;5016484;28;20646;-75
2022/04/26 09:52:44;;;;;;;13.93;12.53;;;;;;;12.76;100.00;99352.09;4999356;28;20343;-74
2022/04/26 09:55:13;;;;;;;13.83;12.43;;;;;;;12.92;100.00;99355.06;5033366;28;20217;-76
2022/04/26 09:57:43;;;;;;;13.90;12.60;;;;;;;12.91;100.00;99361.50;5033005;28;20264;-76
2022/04/26 10:00:11;;;;;;;13.77;12.47;;;;;;;12.91;100.00;99358.81;5032969;28;20188;-75
2022/04/26 10:02:43;;;;;;;13.77;12.47;;;;;;;12.83;100.00;99353.84;4998702;28;20267;-76
2022/04/26 10:05:14;;;;;;;13.37;12.07;;;;;;;12.77;100.00;99355.59;5016272;28;20203;-75
2022/04/26 10:07:44;;;;;;;13.63;12.33;;;;;;;12.77;100.00;99360.97;5032243;28;20194;-75
2022/04/26 10:10:13;;;;;;;13.33;12.03;;;;;;;12.73;100.00;99357.97;5033113;28;20419;-75
2022/04/26 10:12:40;;;;;;;14.03;11.77;;;;;;;12.72;100.00;99356.31;5015994;28;20219;-74
2022/04/26 10:15:07;;;;;;;14.47;12.17;;;;;;;12.68;100.00;99357.88;5033062;28;20557;-77
2022/04/26 10:17:34;;;;;;;12.90;11.60;;;;;;;12.65;100.00;99352.13;4998664;28;20210;-75
2022/04/26 10:20:01;;;;;;;14.70;12.07;;;;;;;12.77;100.00;99351.06;5014782;28;20195;-76
2022/04/26 10:22:53;;;;;;;13.10;11.83;;;;;;;13.03;100.00;99354.19;5015094;28;20262;-75
2022/04/26 10:25:21;;;;;;;12.03;10.93;;;;;;;13.12;100.00;99344.69;5032742;28;20204;-75
2022/04/26 10:28:16;;;;;;;12.57;10.93;;;;;;;13.22;100.00;99345.69;5015576;28;20209;-75
2022/04/26 10:30:56;;;;;;;13.07;11.77;;;;;;;13.36;100.00;99340.81;5032608;28;20259;-74
2022/04/26 10:33:36;;;;;;;13.20;11.87;;;;;;;13.52;100.00;99344.56;5032644;28;20585;-75
2022/04/26 10:36:28;;;;;;;12.87;11.57;;;;;;;13.57;100.00;99345.47;5032329;28;20601;-74
2022/04/26 10:39:07;;;;;;;12.47;11.20;;;;;;;13.62;100.00;99337.44;5032472;28;20227;-74
2022/04/26 10:41:42;;;;;;;12.77;11.43;;;;;;;13.60;100.00;99338.75;5030876;28;20563;-74
2022/04/26 10:44:22;;;;;;;12.87;11.67;;;;;;;13.56;100.00;99327.69;5032402;28;20273;-74
2022/04/26 10:46:59;;;;;;;12.10;10.90;;;;;;;13.47;100.00;99329.16;4997782;28;20191;-74
2022/04/26 10:49:38;;;;;;;13.30;11.50;;;;;;;13.56;100.00;99325.00;5032251;28;20189;-74
2022/04/26 10:52:13;;;;;;;12.93;11.73;;;;;;;13.61;100.00;99330.44;5031854;28;20576;-78
2022/04/26 10:54:47;;;;;;;16.00;12.60;;;;;;;13.56;100.00;99332.25;5031595;28;20180;-74
2022/04/26 10:57:26;;;;;;;13.53;12.23;;;;;;;13.72;100.00;99330.59;5031913;28;20270;-74
2022/04/26 11:00:07;;;;;;;13.23;11.83;;;;;;;13.94;100.00;99340.34;5015062;28;20192;-74
2022/04/26 11:02:39;;;;;;;11.87;10.77;;;;;;;14.16;100.00;99331.47;5014645;28;20250;-74
2022/04/26 11:05:11;;;;;;;13.23;10.80;;;;;;;14.20;100.00;99325.31;4998043;28;20583;-75
2022/04/26 11:07:41;;;;;;;11.10;10.10;;;;;;;14.43;100.00;99316.19;5031496;28;20204;-75
2022/04/26 11:10:10;;;;;;;10.40;9.40;;;;;;;14.40;100.00;99314.03;5014599;28;20282;-74
2022/04/26 11:12:38;;;;;;;10.70;9.53;;;;;;;14.45;100.00;99317.59;5030545;28;20215;-74
2022/04/26 11:15:10;;;;;;;9.50;8.70;;;;;;;14.75;100.00;99319.78;5030628;28;20220;-75
2022/04/26 11:17:39;;;;;;;11.23;10.07;;;;;;;15.01;98.72;99322.75;5014371;28;20177;-75
2022/04/26 11:20:14;;;;;;;10.80;9.73;;;;;;;15.26;95.00;99314.88;5031484;28;20184;-74
2022/04/26 11:22:46;;;;;;;11.80;10.60;;;;;;;15.58;92.60;99315.72;5031309;28;20215;-76
2022/04/26 11:28:11;;;;;;;12.10;10.80;;;;;;;16.42;82.10;99310.22;5031650;28;20189;-75
2022/04/26 11:30:44;;;;;;;11.77;10.70;;;;;;;16.97;78.01;99312.25;5031301;28;20186;-76
2022/04/26 11:33:18;;;;;;;12.00;10.83;;;;;;;17.46;76.53;99309.81;5014255;28;20180;-74
2022/04/26 11:35:52;;;;;;;11.57;10.47;;;;;;;17.85;73.73;99301.13;5031310;28;20178;-75
2022/04/26 11:38:21;;;;;;;10.43;9.43;;;;;;;18.48;66.47;99305.75;4998402;28;20194;-75
2022/04/26 11:40:51;;;;;;;11.43;10.20;;;;;;;18.83;64.08;99299.38;4997172;28;20190;-75
2022/04/26 11:43:20;;;;;;;10.90;9.90;;;;;;;18.95;62.65;99303.63;5013578;28;20286;-75
2022/04/26 11:45:48;;;;;;;12.77;11.20;;;;;;;19.20;62.84;99298.03;5030854;28;20244;-75
2022/04/26 11:48:20;;;;;;;11.00;10.00;;;;;;;19.47;58.97;99294.81;5013474;28;20532;-75
2022/04/26 11:50:48;;;;;;;10.30;9.20;;;;;;;19.70;58.41;99289.44;4997005;28;20303;-75
2022/04/26 11:53:18;;;;;;;11.07;9.97;;;;;;;19.87;59.98;99286.28;5031071;28;20274;-75
2022/04/26 11:55:57;;;;;;;10.03;9.13;;;;;;;19.48;57.93;99282.88;5030726;28;20182;-75
2022/04/26 11:58:27;;;;;;;8.63;7.73;;;;;;;18.89;57.97;99289.31;5013403;28;20229;-78
2022/04/26 12:01:00;;;;;;;8.70;7.77;;;;;;;18.61;60.28;99279.97;5030845;28;20206;-75
2022/04/26 12:03:32;;;;;;;6.27;5.53;;;;;;;18.83;54.57;99287.69;5013666;28;20221;-75
2022/04/26 12:06:07;;;;;;;6.03;5.40;;;;;;;18.70;53.68;99274.75;5013556;28;20311;-75
2022/04/26 12:08:57;;;;;;;5.77;5.37;;;;;;;18.62;54.88;99270.72;5012962;28;20178;-77
2022/04/26 12:11:29;;;;;;;6.90;6.20;;;;;;;18.64;54.05;99270.47;5031116;28;20194;-76
2022/04/26 12:14:01;;;;;;;6.20;5.70;;;;;;;18.46;54.22;99263.75;5030674;28;20175;-75
2022/04/26 12:16:32;;;;;;;6.63;5.93;;;;;;;18.55;54.99;99264.00;5013314;28;20265;-75
2022/04/26 12:19:00;;;;;;;7.20;6.50;;;;;;;18.16;57.88;99255.75;5013347;28;20282;-75
2022/04/26 12:21:28;;;;;;;8.37;7.57;;;;;;;18.39;57.27;99255.91;5013129;28;20178;-75
2022/04/26 12:24:15;;;;;;;10.47;9.07;;;;;;;18.18;57.57;99253.59;5013898;28;20226;-76
2022/04/26 12:26:49;;;;;;;10.87;9.83;;;;;;;18.25;56.68;99249.47;5016763;28;20262;-75
2022/04/26 12:29:16;;;;;;;11.23;10.23;;;;;;;18.29;57.49;99239.69;5034412;28;20263;-75
2022/04/26 12:31:44;;;;;;;10.80;9.80;;;;;;;18.41;59.26;99229.31;5034122;28;20266;-75
2022/04/26 12:34:19;;;;;;;12.60;11.37;;;;;;;18.39;62.14;99238.81;5034333;28;20628;-76
2022/04/26 12:36:59;;;;;;;11.63;10.53;;;;;;;18.60;59.10;99228.69;5016241;28;20210;-75
2022/04/26 12:39:53;;;;;;;11.47;10.33;;;;;;;18.74;58.86;99227.78;5034239;28;20237;-75
2022/04/26 12:42:26;;;;;;;10.60;9.50;;;;;;;18.70;55.17;99220.50;5007682;28;20202;-75
2022/04/26 12:44:56;;;;;;;10.87;9.77;;;;;;;18.65;55.53;99220.53;5034577;28;20262;-74
2022/04/26 12:53:06;;;;;;;10.40;9.40;;;;;;;19.05;52.16;99209.34;5019140;28;20202;-76
2022/04/26 12:55:40;;;;;;;8.17;7.37;;;;;;;19.13;48.32;99206.00;5015873;28;20250;-75
2022/04/26 12:58:08;;;;;;;9.53;8.63;;;;;;;19.19;49.72;99209.50;5016266;28;20182;-74
2022/04/26 13:00:47;;;;;;;12.27;11.17;;;;;;;19.34;54.18;99209.34;5033863;28;20697;-76
2022/04/26 13:03:16;;;;;;;11.67;10.67;;;;;;;19.14;52.92;99204.09;4999343;28;20198;-74
2022/04/26 13:05:46;;;;;;;10.93;10.00;;;;;;;19.05;52.18;99197.66;5016173;28;20483;-74
2022/04/26 13:08:17;;;;;;;12.93;11.73;;;;;;;19.01;57.28;99197.44;5033527;28;20309;-75
2022/04/26 13:10:45;;;;;;;12.23;11.10;;;;;;;18.90;57.31;99188.56;5015753;28;20218;-75
2022/04/26 13:13:13;;;;;;;11.83;10.83;;;;;;;19.01;56.26;99191.19;5016423;28;20187;-76
2022/04/26 13:15:44;;;;;;;12.37;11.17;;;;;;;19.08;55.21;99192.50;5015991;28;20178;-78
2022/04/26 13:18:14;;;;;;;14.60;13.20;;;;;;;19.16;56.45;99178.31;5016574;28;20186;-76
2022/04/26 13:20:41;;;;;;;13.53;12.30;;;;;;;19.30;56.92;99184.69;5015231;28;20202;-75
2022/04/26 13:23:11;;;;;;;13.53;12.23;;;;;;;19.27;55.75;99171.66;5015786;28;20273;-77
2022/04/26 13:25:39;;;;;;;12.77;11.40;;;;;;;19.59;55.89;99184.69;5015469;28;20180;-76
2022/04/26 13:28:06;;;;;;;12.40;11.30;;;;;;;19.67;51.00;99175.88;5033230;28;20244;-75
2022/04/26 13:30:33;;;;;;;12.37;11.17;;;;;;;19.43;52.66;99175.03;5015414;28;20508;-75
2022/04/26 13:33:01;;;;;;;12.73;11.53;;;;;;;19.87;53.05;99168.59;5015362;28;20198;-75
2022/04/26 13:35:27;;;;;;;14.07;12.60;;;;;;;19.41;55.39;99171.00;5014797;28;20533;-76
2022/04/26 13:37:57;;;;;;;13.77;12.37;;;;;;;19.33;56.87;99165.09;5032829;28;20269;-74
2022/04/26 13:40:24;;;;;;;13.10;11.90;;;;;;;19.10;55.29;99165.06;5015515;28;20318;-75
2022/04/26 13:42:56;;;;;;;12.10;11.00;;;;;;;18.87;55.09;99166.63;5033114;28;20566;-75
2022/04/26 13:45:24;;;;;;;13.07;11.77;;;;;;;18.84;54.90;99167.19;5014952;28;20583;-74
2022/04/26 13:47:51;;;;;;;12.70;11.50;;;;;;;19.27;56.77;99165.44;5015212;28;20187;-74
2022/04/26 13:50:18;;;;;;;11.43;10.43;;;;;;;20.15;51.69;99159.50;5015451;28;20184;-75
2022/04/26 13:52:45;;;;;;;13.13;11.33;;;;;;;20.85;47.86;99159.53;5032338;28;20229;-75
2022/04/26 13:55:17;;;;;;;14.47;13.00;;;;;;;21.02;47.21;99157.88;5015508;28;20197;-76
2022/04/26 13:57:45;;;;;;;12.53;11.33;;;;;;;21.20;46.46;99161.66;5032987;28;20188;-75
2022/04/26 14:00:13;;;;;;;12.03;10.83;;;;;;;21.14;48.92;99146.50;5015207;28;20229;-77
2022/04/26 14:02:41;;;;;;;12.83;11.63;;;;;;;21.43;45.54;99152.50;5014957;28;20272;-75
2022/04/26 14:05:08;;;;;;;12.13;11.03;;;;;;;21.41;45.84;99153.94;5014444;28;20192;-76
2022/04/26 14:07:36;;;;;;;13.23;12.03;;;;;;;20.77;46.40;99143.88;5014540;28;20212;-75
2022/04/26 14:10:03;;;;;;;13.83;12.47;;;;;;;19.92;49.57;99146.78;5014576;28;20226;-75
2022/04/26 14:12:30;;;;;;;14.37;12.83;;;;;;;19.68;52.36;99150.34;4998456;28;20197;-74
2022/04/26 14:23:13;;;;;;;16.13;14.63;;;;;;;19.56;52.36;99135.50;5031862;28;20478;-75
2022/04/26 14:25:40;;;;;;;16.90;15.20;;;;;;;19.22;53.21;99143.75;5031828;28;20210;-75
2022/04/26 14:28:07;;;;;;;16.93;15.23;;;;;;;19.19;53.65;99138.88;4998278;28;20273;-75
2022/04/26 14:30:34;;;;;;;17.13;15.33;;;;;;;18.89;54.31;99135.41;5031652;28;20270;-78
2022/04/26 14:33:07;;;;;;;16.53;15.00;;;;;;;18.77;55.17;99126.81;5015543;28;20605;-78
2022/04/26 14:35:35;;;;;;;16.50;14.90;;;;;;;18.01;59.98;99135.47;5014185;28;20209;-76
2022/04/26 14:38:02;;;;;;;16.90;14.60;;;;;;;18.29;60.27;99133.16;4998634;28;20179;-75
2022/04/26 14:40:29;;;;;;;16.33;14.73;;;;;;;18.35;59.89;99130.09;5014036;28;20683;-75
2022/04/26 14:43:03;;;;;;;16.80;15.20;;;;;;;18.07;59.31;99128.13;5015169;28;20596;-75
2022/04/26 14:45:32;;;;;;;15.77;14.23;;;;;;;17.86;61.99;99129.34;5014098;28;20653;-75
2022/04/26 14:48:00;;;;;;;16.57;14.87;;;;;;;17.92;61.86;99129.00;5014358;28;20577;-75
2022/04/26 14:50:30;;;;;;;15.60;14.07;;;;;;;18.14;60.88;99128.63;4997814;28;20200;-75
2022/04/26 14:52:56;;;;;;;15.53;14.13;;;;;;;18.27;60.58;99129.88;5031734;28;20186;-75
2022/04/26 14:55:23;;;;;;;14.03;12.70;;;;;;;18.88;57.48;99128.34;5031342;28;20589;-76
2022/04/26 14:57:50;;;;;;;14.30;12.83;;;;;;;19.30;55.95;99137.69;5031479;28;20187;-75
2022/04/26 15:00:17;;;;;;;14.60;13.10;;;;;;;19.84;52.19;99125.66;5031403;28;20229;-76
2022/04/26 15:02:44;;;;;;;14.90;13.40;;;;;;;19.93;51.79;99124.72;5013640;28;20211;-75
2022/04/26 15:05:11;;;;;;;15.20;13.70;;;;;;;19.41;53.36;99130.25;5031704;28;20266;-74
2022/04/26 15:10:24;;;;;;;14.10;12.70;;;;;;;20.01;52.66;99123.25;5031334;28;20198;-77
2022/04/26 15:18:22;;;;;;;13.50;12.20;;;;;;;18.64;57.69;99119.31;5031498;28;20464;-76
2022/04/26 15:20:52;;;;;;;14.10;12.57;;;;;;;18.81;56.18;99110.75;5013525;28;20449;-74
2022/04/26 15:23:20;;;;;;;13.70;12.40;;;;;;;18.66;58.61;99111.72;5014005;28;20232;-73
2022/04/26 15:25:52;;;;;;;13.37;12.07;;;;;;;18.86;56.48;99116.94;5030830;28;20191;-75
2022/04/26 15:28:21;;;;;;;13.13;11.83;;;;;;;18.76;57.26;99118.94;4997880;28;20175;-76
2022/04/26 15:30:49;;;;;;;12.13;11.03;;;;;;;18.42;56.63;99113.53;5013491;28;20739;-73
2022/04/26 15:33:17;;;;;;;14.03;11.77;;;;;;;18.01;60.08;99115.66;4997606;28;20278;-75
2022/04/26 15:35:44;;;;;;;14.07;12.57;;;;;;;17.42;62.99;99115.66;4997455;28;20260;-73
2022/04/26 15:38:12;;;;;;;14.13;12.27;;;;;;;16.80;66.53;99116.88;5031402;28;20574;-75
2022/04/26 15:40:44;;;;;;;14.23;12.93;;;;;;;16.42;67.15;99114.72;5031130;28;20206;-76